sensor_id;sensor_type;location;lat;lon;timestamp;P1;durP1;ratioP1;P2;durP2;ratioP2
75885;SDS011;64561;44.018;10.144;2024-01-30T00:01:10;13.20;;;7.68;;
75885;SDS011;64561;44.018;10.144;2024-01-30T00:03:38;17.23;;;9.23;;
75885;SDS011;64561;44.018;10.144;2024-01-30T00:06:05;27.80;;;14.20;;
75885;SDS011;64561;44.018;10.144;2024-01-30T00:08:33;17.50;;;9.10;;
75885;SDS011;64561;44.018;10.144;2024-01-30T00:11:00;12.55;;;7.82;;
75885;SDS011;64561;44.018;10.144;2024-01-30T00:13:28;12.27;;;7.55;;
75885;SDS011;64561;44.018;10.144;2024-01-30T00:15:55;9.75;;;6.32;;
75885;SDS011;64561;44.018;10.144;2024-01-30T00:18:22;20.25;;;12.38;;
75885;SDS011;64561;44.018;10.144;2024-01-30T00:20:50;18.20;;;9.07;;
75885;SDS011;64561;44.018;10.144;2024-01-30T00:23:17;14.88;;;8.27;;
75885;SDS011;64561;44.018;10.144;2024-01-30T00:25:44;11.40;;;6.93;;
75885;SDS011;64561;44.018;10.144;2024-01-30T00:28:12;11.07;;;5.82;;
75885;SDS011;64561;44.018;10.144;2024-01-30T00:30:39;11.30;;;6.22;;
75885;SDS011;64561;44.018;10.144;2024-01-30T00:33:06;8.73;;;6.22;;
75885;SDS011;64561;44.018;10.144;2024-01-30T00:35:34;9.80;;;5.90;;
75885;SDS011;64561;44.018;10.144;2024-01-30T00:38:01;11.65;;;5.90;;
75885;SDS011;64561;44.018;10.144;2024-01-30T00:40:29;8.93;;;5.65;;
75885;SDS011;64561;44.018;10.144;2024-01-30T00:42:56;7.93;;;5.55;;
75885;SDS011;64561;44.018;10.144;2024-01-30T00:45:26;8.48;;;6.20;;
75885;SDS011;64561;44.018;10.144;2024-01-30T00:47:53;12.07;;;7.28;;
75885;SDS011;64561;44.018;10.144;2024-01-30T00:50:21;14.48;;;7.68;;
75885;SDS011;64561;44.018;10.144;2024-01-30T00:52:48;11.23;;;6.80;;
75885;SDS011;64561;44.018;10.144;2024-01-30T00:55:15;12.15;;;6.32;;
75885;SDS011;64561;44.018;10.144;2024-01-30T00:57:42;9.52;;;6.40;;
75885;SDS011;64561;44.018;10.144;2024-01-30T01:00:12;10.10;;;6.35;;
75885;SDS011;64561;44.018;10.144;2024-01-30T01:02:39;10.80;;;6.55;;
75885;SDS011;64561;44.018;10.144;2024-01-30T01:05:07;8.85;;;6.30;;
75885;SDS011;64561;44.018;10.144;2024-01-30T01:07:35;10.27;;;6.25;;
75885;SDS011;64561;44.018;10.144;2024-01-30T01:10:02;7.35;;;5.63;;
75885;SDS011;64561;44.018;10.144;2024-01-30T01:12:31;11.40;;;5.80;;
75885;SDS011;64561;44.018;10.144;2024-01-30T01:14:58;11.13;;;6.05;;
75885;SDS011;64561;44.018;10.144;2024-01-30T01:17:30;10.45;;;6.15;;
75885;SDS011;64561;44.018;10.144;2024-01-30T01:19:57;8.68;;;5.97;;
75885;SDS011;64561;44.018;10.144;2024-01-30T01:22:26;8.75;;;5.00;;
75885;SDS011;64561;44.018;10.144;2024-01-30T01:24:53;9.00;;;6.05;;
75885;SDS011;64561;44.018;10.144;2024-01-30T01:27:20;10.20;;;6.10;;
75885;SDS011;64561;44.018;10.144;2024-01-30T01:29:48;8.32;;;5.78;;
75885;SDS011;64561;44.018;10.144;2024-01-30T01:32:15;10.07;;;6.10;;
75885;SDS011;64561;44.018;10.144;2024-01-30T01:34:43;11.77;;;6.20;;
75885;SDS011;64561;44.018;10.144;2024-01-30T01:37:10;9.30;;;5.88;;
75885;SDS011;64561;44.018;10.144;2024-01-30T01:39:38;11.77;;;5.63;;
75885;SDS011;64561;44.018;10.144;2024-01-30T01:42:06;9.18;;;5.10;;
75885;SDS011;64561;44.018;10.144;2024-01-30T01:44:33;7.97;;;5.03;;
75885;SDS011;64561;44.018;10.144;2024-01-30T01:47:01;7.65;;;5.40;;
75885;SDS011;64561;44.018;10.144;2024-01-30T01:49:29;8.75;;;5.15;;
75885;SDS011;64561;44.018;10.144;2024-01-30T01:51:56;9.43;;;4.80;;
75885;SDS011;64561;44.018;10.144;2024-01-30T01:54:25;7.15;;;5.20;;
75885;SDS011;64561;44.018;10.144;2024-01-30T01:56:55;10.20;;;5.20;;
75885;SDS011;64561;44.018;10.144;2024-01-30T01:59:22;9.93;;;4.60;;
75885;SDS011;64561;44.018;10.144;2024-01-30T02:01:57;7.68;;;4.50;;
75885;SDS011;64561;44.018;10.144;2024-01-30T02:04:30;5.22;;;3.83;;
75885;SDS011;64561;44.018;10.144;2024-01-30T02:10:04;6.90;;;4.07;;
75885;SDS011;64561;44.018;10.144;2024-01-30T02:12:35;5.55;;;3.38;;
75885;SDS011;64561;44.018;10.144;2024-01-30T02:15:03;6.90;;;4.15;;
75885;SDS011;64561;44.018;10.144;2024-01-30T02:17:40;7.00;;;4.47;;
75885;SDS011;64561;44.018;10.144;2024-01-30T02:20:09;5.85;;;4.05;;
75885;SDS011;64561;44.018;10.144;2024-01-30T02:23:23;7.13;;;4.70;;
75885;SDS011;64561;44.018;10.144;2024-01-30T02:27:43;5.60;;;3.15;;
75885;SDS011;64561;44.018;10.144;2024-01-30T02:30:10;5.82;;;3.47;;
75885;SDS011;64561;44.018;10.144;2024-01-30T02:32:38;6.95;;;3.60;;
75885;SDS011;64561;44.018;10.144;2024-01-30T02:35:06;5.90;;;3.30;;
75885;SDS011;64561;44.018;10.144;2024-01-30T02:37:36;5.18;;;3.30;;
75885;SDS011;64561;44.018;10.144;2024-01-30T02:40:03;6.18;;;3.35;;
75885;SDS011;64561;44.018;10.144;2024-01-30T02:42:31;5.75;;;3.33;;
75885;SDS011;64561;44.018;10.144;2024-01-30T02:44:58;5.95;;;4.03;;
75885;SDS011;64561;44.018;10.144;2024-01-30T02:47:28;5.45;;;3.33;;
75885;SDS011;64561;44.018;10.144;2024-01-30T02:49:56;7.90;;;3.97;;
75885;SDS011;64561;44.018;10.144;2024-01-30T02:52:23;6.28;;;3.72;;
75885;SDS011;64561;44.018;10.144;2024-01-30T02:54:50;6.05;;;3.88;;
75885;SDS011;64561;44.018;10.144;2024-01-30T02:57:17;6.15;;;3.75;;
75885;SDS011;64561;44.018;10.144;2024-01-30T02:59:45;6.20;;;3.65;;
75885;SDS011;64561;44.018;10.144;2024-01-30T03:02:12;6.05;;;3.55;;
75885;SDS011;64561;44.018;10.144;2024-01-30T03:04:42;5.57;;;3.60;;
75885;SDS011;64561;44.018;10.144;2024-01-30T03:07:10;6.65;;;3.58;;
75885;SDS011;64561;44.018;10.144;2024-01-30T03:09:37;5.45;;;2.83;;
75885;SDS011;64561;44.018;10.144;2024-01-30T03:12:04;9.07;;;3.55;;
75885;SDS011;64561;44.018;10.144;2024-01-30T03:14:35;8.95;;;3.78;;
75885;SDS011;64561;44.018;10.144;2024-01-30T03:17:03;4.97;;;3.38;;
75885;SDS011;64561;44.018;10.144;2024-01-30T03:19:30;5.28;;;3.38;;
75885;SDS011;64561;44.018;10.144;2024-01-30T03:21:58;6.00;;;2.92;;
75885;SDS011;64561;44.018;10.144;2024-01-30T03:24:25;5.65;;;3.00;;
75885;SDS011;64561;44.018;10.144;2024-01-30T03:26:53;6.25;;;3.33;;
75885;SDS011;64561;44.018;10.144;2024-01-30T03:29:20;5.32;;;2.92;;
75885;SDS011;64561;44.018;10.144;2024-01-30T03:31:47;7.50;;;3.00;;
75885;SDS011;64561;44.018;10.144;2024-01-30T03:34:14;5.50;;;2.95;;
75885;SDS011;64561;44.018;10.144;2024-01-30T03:36:42;5.13;;;3.55;;
75885;SDS011;64561;44.018;10.144;2024-01-30T03:39:09;5.63;;;3.08;;
75885;SDS011;64561;44.018;10.144;2024-01-30T03:41:36;4.57;;;3.15;;
75885;SDS011;64561;44.018;10.144;2024-01-30T03:44:03;5.35;;;3.20;;
75885;SDS011;64561;44.018;10.144;2024-01-30T03:46:30;6.15;;;3.20;;
75885;SDS011;64561;44.018;10.144;2024-01-30T03:48:57;5.45;;;3.67;;
75885;SDS011;64561;44.018;10.144;2024-01-30T03:51:25;4.80;;;2.90;;
75885;SDS011;64561;44.018;10.144;2024-01-30T03:53:52;5.78;;;3.15;;
75885;SDS011;64561;44.018;10.144;2024-01-30T03:56:19;6.68;;;3.20;;
75885;SDS011;64561;44.018;10.144;2024-01-30T03:58:46;4.97;;;3.40;;
75885;SDS011;64561;44.018;10.144;2024-01-30T04:01:14;4.53;;;2.58;;
75885;SDS011;64561;44.018;10.144;2024-01-30T04:03:42;4.75;;;2.90;;
75885;SDS011;64561;44.018;10.144;2024-01-30T04:06:11;7.20;;;3.40;;
75885;SDS011;64561;44.018;10.144;2024-01-30T04:08:38;7.30;;;3.38;;
75885;SDS011;64561;44.018;10.144;2024-01-30T04:11:06;4.53;;;2.80;;
75885;SDS011;64561;44.018;10.144;2024-01-30T04:13:33;5.45;;;3.00;;
75885;SDS011;64561;44.018;10.144;2024-01-30T04:16:00;6.32;;;2.85;;
75885;SDS011;64561;44.018;10.144;2024-01-30T04:18:29;5.00;;;3.10;;
75885;SDS011;64561;44.018;10.144;2024-01-30T04:20:56;5.30;;;2.92;;
75885;SDS011;64561;44.018;10.144;2024-01-30T04:23:23;6.38;;;3.28;;
75885;SDS011;64561;44.018;10.144;2024-01-30T04:25:51;5.78;;;3.40;;
75885;SDS011;64561;44.018;10.144;2024-01-30T04:28:18;6.82;;;3.78;;
75885;SDS011;64561;44.018;10.144;2024-01-30T04:30:45;4.80;;;3.20;;
75885;SDS011;64561;44.018;10.144;2024-01-30T04:33:12;5.43;;;3.65;;
75885;SDS011;64561;44.018;10.144;2024-01-30T04:35:40;5.95;;;3.28;;
75885;SDS011;64561;44.018;10.144;2024-01-30T04:38:07;5.93;;;3.30;;
75885;SDS011;64561;44.018;10.144;2024-01-30T04:40:34;6.45;;;3.30;;
75885;SDS011;64561;44.018;10.144;2024-01-30T04:43:01;4.63;;;3.00;;
75885;SDS011;64561;44.018;10.144;2024-01-30T04:45:28;6.80;;;3.50;;
75885;SDS011;64561;44.018;10.144;2024-01-30T04:47:55;7.30;;;3.95;;
75885;SDS011;64561;44.018;10.144;2024-01-30T04:50:23;7.22;;;3.55;;
75885;SDS011;64561;44.018;10.144;2024-01-30T04:52:50;7.70;;;3.50;;
75885;SDS011;64561;44.018;10.144;2024-01-30T04:55:17;6.43;;;3.83;;
75885;SDS011;64561;44.018;10.144;2024-01-30T04:57:48;7.45;;;3.55;;
75885;SDS011;64561;44.018;10.144;2024-01-30T05:00:16;6.72;;;3.20;;
75885;SDS011;64561;44.018;10.144;2024-01-30T05:02:43;6.28;;;3.60;;
75885;SDS011;64561;44.018;10.144;2024-01-30T05:05:11;5.28;;;3.22;;
75885;SDS011;64561;44.018;10.144;2024-01-30T05:07:38;4.22;;;2.92;;
75885;SDS011;64561;44.018;10.144;2024-01-30T05:10:08;5.03;;;3.00;;
75885;SDS011;64561;44.018;10.144;2024-01-30T05:12:35;5.82;;;3.78;;
75885;SDS011;64561;44.018;10.144;2024-01-30T05:15:03;5.57;;;3.25;;
75885;SDS011;64561;44.018;10.144;2024-01-30T05:17:31;9.20;;;3.85;;
75885;SDS011;64561;44.018;10.144;2024-01-30T05:19:59;5.20;;;3.15;;
75885;SDS011;64561;44.018;10.144;2024-01-30T05:22:26;6.57;;;3.97;;
75885;SDS011;64561;44.018;10.144;2024-01-30T05:24:53;7.32;;;3.50;;
75885;SDS011;64561;44.018;10.144;2024-01-30T05:27:20;6.28;;;3.70;;
75885;SDS011;64561;44.018;10.144;2024-01-30T05:29:48;8.95;;;4.10;;
75885;SDS011;64561;44.018;10.144;2024-01-30T05:32:15;5.18;;;3.53;;
75885;SDS011;64561;44.018;10.144;2024-01-30T05:34:42;6.93;;;3.45;;
75885;SDS011;64561;44.018;10.144;2024-01-30T05:37:16;6.40;;;3.33;;
75885;SDS011;64561;44.018;10.144;2024-01-30T05:40:01;7.45;;;3.67;;
75885;SDS011;64561;44.018;10.144;2024-01-30T05:42:29;8.43;;;3.72;;
75885;SDS011;64561;44.018;10.144;2024-01-30T05:44:56;7.70;;;4.18;;
75885;SDS011;64561;44.018;10.144;2024-01-30T05:47:24;8.38;;;4.55;;
75885;SDS011;64561;44.018;10.144;2024-01-30T05:49:52;7.57;;;4.70;;
75885;SDS011;64561;44.018;10.144;2024-01-30T05:52:19;7.85;;;4.00;;
75885;SDS011;64561;44.018;10.144;2024-01-30T05:54:50;5.47;;;3.75;;
75885;SDS011;64561;44.018;10.144;2024-01-30T05:57:18;5.95;;;4.18;;
75885;SDS011;64561;44.018;10.144;2024-01-30T05:59:45;7.25;;;4.75;;
75885;SDS011;64561;44.018;10.144;2024-01-30T06:02:14;6.75;;;4.00;;
75885;SDS011;64561;44.018;10.144;2024-01-30T06:04:41;5.85;;;3.55;;
75885;SDS011;64561;44.018;10.144;2024-01-30T06:07:09;7.30;;;4.10;;
75885;SDS011;64561;44.018;10.144;2024-01-30T06:09:36;7.20;;;4.28;;
75885;SDS011;64561;44.018;10.144;2024-01-30T06:12:04;6.40;;;3.70;;
75885;SDS011;64561;44.018;10.144;2024-01-30T06:14:32;5.93;;;3.95;;
75885;SDS011;64561;44.018;10.144;2024-01-30T06:16:59;7.28;;;4.05;;
75885;SDS011;64561;44.018;10.144;2024-01-30T06:19:27;13.85;;;8.57;;
75885;SDS011;64561;44.018;10.144;2024-01-30T06:21:54;14.52;;;9.30;;
75885;SDS011;64561;44.018;10.144;2024-01-30T06:24:27;12.60;;;9.02;;
75885;SDS011;64561;44.018;10.144;2024-01-30T06:26:54;16.60;;;7.13;;
75885;SDS011;64561;44.018;10.144;2024-01-30T06:29:21;10.88;;;6.80;;
75885;SDS011;64561;44.018;10.144;2024-01-30T06:31:51;10.40;;;7.38;;
75885;SDS011;64561;44.018;10.144;2024-01-30T06:34:18;8.73;;;6.32;;
75885;SDS011;64561;44.018;10.144;2024-01-30T06:36:45;12.02;;;6.80;;
75885;SDS011;64561;44.018;10.144;2024-01-30T06:39:13;12.85;;;8.75;;
75885;SDS011;64561;44.018;10.144;2024-01-30T06:41:40;12.70;;;7.40;;
75885;SDS011;64561;44.018;10.144;2024-01-30T06:44:07;12.68;;;8.35;;
75885;SDS011;64561;44.018;10.144;2024-01-30T06:46:35;10.15;;;7.03;;
75885;SDS011;64561;44.018;10.144;2024-01-30T06:49:02;14.05;;;6.35;;
75885;SDS011;64561;44.018;10.144;2024-01-30T06:51:29;10.60;;;6.25;;
75885;SDS011;64561;44.018;10.144;2024-01-30T06:53:56;8.15;;;5.72;;
75885;SDS011;64561;44.018;10.144;2024-01-30T06:56:24;9.38;;;6.10;;
75885;SDS011;64561;44.018;10.144;2024-01-30T06:58:52;13.45;;;6.53;;
75885;SDS011;64561;44.018;10.144;2024-01-30T07:01:19;16.73;;;8.15;;
75885;SDS011;64561;44.018;10.144;2024-01-30T07:03:46;12.38;;;7.30;;
75885;SDS011;64561;44.018;10.144;2024-01-30T07:06:13;12.40;;;7.30;;
75885;SDS011;64561;44.018;10.144;2024-01-30T07:08:41;13.75;;;7.10;;
75885;SDS011;64561;44.018;10.144;2024-01-30T07:11:08;16.25;;;7.82;;
75885;SDS011;64561;44.018;10.144;2024-01-30T07:13:35;12.90;;;7.97;;
75885;SDS011;64561;44.018;10.144;2024-01-30T07:16:04;12.00;;;7.82;;
75885;SDS011;64561;44.018;10.144;2024-01-30T07:18:31;12.60;;;8.55;;
75885;SDS011;64561;44.018;10.144;2024-01-30T07:20:59;13.05;;;7.47;;
75885;SDS011;64561;44.018;10.144;2024-01-30T07:23:26;14.77;;;7.18;;
75885;SDS011;64561;44.018;10.144;2024-01-30T07:25:53;14.38;;;7.00;;
75885;SDS011;64561;44.018;10.144;2024-01-30T07:28:20;16.00;;;7.80;;
75885;SDS011;64561;44.018;10.144;2024-01-30T07:34:08;19.92;;;7.97;;
75885;SDS011;64561;44.018;10.144;2024-01-30T07:36:38;15.68;;;7.55;;
75885;SDS011;64561;44.018;10.144;2024-01-30T07:39:05;15.05;;;7.13;;
75885;SDS011;64561;44.018;10.144;2024-01-30T07:41:33;16.67;;;7.80;;
75885;SDS011;64561;44.018;10.144;2024-01-30T07:44:00;14.50;;;7.75;;
75885;SDS011;64561;44.018;10.144;2024-01-30T07:46:27;14.45;;;7.38;;
75885;SDS011;64561;44.018;10.144;2024-01-30T07:48:55;12.15;;;7.80;;
75885;SDS011;64561;44.018;10.144;2024-01-30T07:51:23;15.80;;;10.05;;
75885;SDS011;64561;44.018;10.144;2024-01-30T07:53:50;20.15;;;10.43;;
75885;SDS011;64561;44.018;10.144;2024-01-30T07:56:18;19.67;;;11.60;;
75885;SDS011;64561;44.018;10.144;2024-01-30T07:58:45;19.52;;;10.52;;
75885;SDS011;64561;44.018;10.144;2024-01-30T08:01:12;18.75;;;9.70;;
75885;SDS011;64561;44.018;10.144;2024-01-30T08:03:39;24.80;;;12.32;;
75885;SDS011;64561;44.018;10.144;2024-01-30T08:06:09;21.17;;;11.57;;
75885;SDS011;64561;44.018;10.144;2024-01-30T08:08:36;21.67;;;10.05;;
75885;SDS011;64561;44.018;10.144;2024-01-30T08:11:04;19.40;;;12.10;;
75885;SDS011;64561;44.018;10.144;2024-01-30T08:13:32;21.75;;;14.07;;
75885;SDS011;64561;44.018;10.144;2024-01-30T08:15:59;28.52;;;15.57;;
75885;SDS011;64561;44.018;10.144;2024-01-30T08:18:26;29.13;;;16.60;;
75885;SDS011;64561;44.018;10.144;2024-01-30T08:20:54;25.52;;;15.10;;
75885;SDS011;64561;44.018;10.144;2024-01-30T08:23:21;31.33;;;16.95;;
75885;SDS011;64561;44.018;10.144;2024-01-30T08:25:48;30.73;;;19.92;;
75885;SDS011;64561;44.018;10.144;2024-01-30T08:28:15;37.78;;;21.75;;
75885;SDS011;64561;44.018;10.144;2024-01-30T08:30:49;39.88;;;23.00;;
75885;SDS011;64561;44.018;10.144;2024-01-30T08:33:17;55.47;;;30.10;;
75885;SDS011;64561;44.018;10.144;2024-01-30T08:35:45;64.53;;;33.53;;
75885;SDS011;64561;44.018;10.144;2024-01-30T08:38:13;57.13;;;32.03;;
75885;SDS011;64561;44.018;10.144;2024-01-30T08:40:40;55.25;;;31.35;;
75885;SDS011;64561;44.018;10.144;2024-01-30T08:43:07;50.88;;;30.42;;
75885;SDS011;64561;44.018;10.144;2024-01-30T08:48:18;38.83;;;21.60;;
75885;SDS011;64561;44.018;10.144;2024-01-30T08:50:45;30.83;;;19.55;;
75885;SDS011;64561;44.018;10.144;2024-01-30T08:53:12;33.83;;;17.92;;
75885;SDS011;64561;44.018;10.144;2024-01-30T08:55:40;29.00;;;18.58;;
75885;SDS011;64561;44.018;10.144;2024-01-30T08:58:08;34.78;;;20.50;;
75885;SDS011;64561;44.018;10.144;2024-01-30T09:00:35;38.15;;;22.25;;
75885;SDS011;64561;44.018;10.144;2024-01-30T09:03:03;39.55;;;21.52;;
75885;SDS011;64561;44.018;10.144;2024-01-30T09:05:30;45.17;;;25.35;;
75885;SDS011;64561;44.018;10.144;2024-01-30T09:07:57;73.25;;;40.72;;
75885;SDS011;64561;44.018;10.144;2024-01-30T09:10:24;80.95;;;45.42;;
75885;SDS011;64561;44.018;10.144;2024-01-30T09:12:51;102.78;;;60.60;;
75885;SDS011;64561;44.018;10.144;2024-01-30T09:15:19;112.45;;;65.72;;
75885;SDS011;64561;44.018;10.144;2024-01-30T09:17:49;108.78;;;61.15;;
75885;SDS011;64561;44.018;10.144;2024-01-30T09:20:17;110.65;;;63.25;;
75885;SDS011;64561;44.018;10.144;2024-01-30T09:22:46;100.70;;;59.05;;
75885;SDS011;64561;44.018;10.144;2024-01-30T09:25:13;92.32;;;55.40;;
75885;SDS011;64561;44.018;10.144;2024-01-30T09:27:42;78.32;;;49.15;;
75885;SDS011;64561;44.018;10.144;2024-01-30T09:30:09;75.35;;;45.15;;
75885;SDS011;64561;44.018;10.144;2024-01-30T09:32:36;73.32;;;39.88;;
75885;SDS011;64561;44.018;10.144;2024-01-30T09:35:04;69.75;;;40.22;;
75885;SDS011;64561;44.018;10.144;2024-01-30T09:37:40;62.45;;;36.90;;
75885;SDS011;64561;44.018;10.144;2024-01-30T09:40:07;56.67;;;34.33;;
75885;SDS011;64561;44.018;10.144;2024-01-30T09:42:36;55.13;;;34.17;;
75885;SDS011;64561;44.018;10.144;2024-01-30T09:45:06;55.08;;;33.40;;
75885;SDS011;64561;44.018;10.144;2024-01-30T09:47:43;55.85;;;32.67;;
75885;SDS011;64561;44.018;10.144;2024-01-30T09:50:12;52.08;;;31.73;;
75885;SDS011;64561;44.018;10.144;2024-01-30T09:52:45;48.85;;;27.23;;
75885;SDS011;64561;44.018;10.144;2024-01-30T09:55:13;46.05;;;26.80;;
75885;SDS011;64561;44.018;10.144;2024-01-30T09:57:41;41.25;;;26.13;;
75885;SDS011;64561;44.018;10.144;2024-01-30T10:00:10;43.33;;;24.85;;
75885;SDS011;64561;44.018;10.144;2024-01-30T10:02:39;40.38;;;25.65;;
75885;SDS011;64561;44.018;10.144;2024-01-30T10:05:08;37.67;;;24.08;;
75885;SDS011;64561;44.018;10.144;2024-01-30T10:07:36;42.42;;;24.42;;
75885;SDS011;64561;44.018;10.144;2024-01-30T10:10:05;41.90;;;25.92;;
75885;SDS011;64561;44.018;10.144;2024-01-30T10:12:34;38.90;;;24.77;;
75885;SDS011;64561;44.018;10.144;2024-01-30T10:15:01;36.60;;;23.80;;
75885;SDS011;64561;44.018;10.144;2024-01-30T10:17:30;35.97;;;21.85;;
75885;SDS011;64561;44.018;10.144;2024-01-30T10:20:00;31.80;;;20.67;;
75885;SDS011;64561;44.018;10.144;2024-01-30T10:22:32;37.38;;;22.98;;
75885;SDS011;64561;44.018;10.144;2024-01-30T10:25:00;33.22;;;22.23;;
75885;SDS011;64561;44.018;10.144;2024-01-30T10:27:32;29.27;;;19.98;;
75885;SDS011;64561;44.018;10.144;2024-01-30T10:29:59;27.88;;;20.25;;
75885;SDS011;64561;44.018;10.144;2024-01-30T10:32:26;23.08;;;16.85;;
75885;SDS011;64561;44.018;10.144;2024-01-30T10:34:53;22.08;;;14.95;;
75885;SDS011;64561;44.018;10.144;2024-01-30T10:37:23;21.17;;;15.20;;
75885;SDS011;64561;44.018;10.144;2024-01-30T10:39:55;22.98;;;15.15;;
75885;SDS011;64561;44.018;10.144;2024-01-30T10:42:30;23.33;;;14.60;;
75885;SDS011;64561;44.018;10.144;2024-01-30T10:47:34;23.67;;;13.80;;
75885;SDS011;64561;44.018;10.144;2024-01-30T10:50:07;21.70;;;14.02;;
75885;SDS011;64561;44.018;10.144;2024-01-30T10:52:37;19.38;;;13.43;;
75885;SDS011;64561;44.018;10.144;2024-01-30T10:55:04;20.73;;;13.57;;
75885;SDS011;64561;44.018;10.144;2024-01-30T10:57:35;19.17;;;11.80;;
75885;SDS011;64561;44.018;10.144;2024-01-30T11:00:08;16.73;;;12.18;;
75885;SDS011;64561;44.018;10.144;2024-01-30T11:02:45;16.58;;;11.10;;
75885;SDS011;64561;44.018;10.144;2024-01-30T11:05:23;18.02;;;11.70;;
75885;SDS011;64561;44.018;10.144;2024-01-30T11:07:55;19.15;;;12.63;;
75885;SDS011;64561;44.018;10.144;2024-01-30T11:10:24;14.50;;;10.27;;
75885;SDS011;64561;44.018;10.144;2024-01-30T11:12:52;16.10;;;10.75;;
75885;SDS011;64561;44.018;10.144;2024-01-30T11:15:19;17.63;;;11.10;;
75885;SDS011;64561;44.018;10.144;2024-01-30T11:20:16;17.98;;;10.13;;
75885;SDS011;64561;44.018;10.144;2024-01-30T11:25:15;12.18;;;8.45;;
75885;SDS011;64561;44.018;10.144;2024-01-30T11:28:02;15.52;;;9.80;;
75885;SDS011;64561;44.018;10.144;2024-01-30T11:30:31;14.05;;;10.10;;
75885;SDS011;64561;44.018;10.144;2024-01-30T11:33:03;12.13;;;7.45;;
75885;SDS011;64561;44.018;10.144;2024-01-30T11:35:38;13.60;;;8.20;;
75885;SDS011;64561;44.018;10.144;2024-01-30T11:38:07;11.07;;;7.90;;
75885;SDS011;64561;44.018;10.144;2024-01-30T11:40:37;14.55;;;9.10;;
75885;SDS011;64561;44.018;10.144;2024-01-30T11:43:06;11.32;;;7.72;;
75885;SDS011;64561;44.018;10.144;2024-01-30T11:45:36;10.60;;;7.55;;
75885;SDS011;64561;44.018;10.144;2024-01-30T11:48:04;18.33;;;9.75;;
75885;SDS011;64561;44.018;10.144;2024-01-30T11:50:33;14.55;;;8.88;;
75885;SDS011;64561;44.018;10.144;2024-01-30T11:53:01;13.60;;;8.30;;
75885;SDS011;64561;44.018;10.144;2024-01-30T11:55:29;14.75;;;9.15;;
75885;SDS011;64561;44.018;10.144;2024-01-30T11:58:01;12.63;;;8.65;;
75885;SDS011;64561;44.018;10.144;2024-01-30T12:00:30;14.32;;;8.73;;
75885;SDS011;64561;44.018;10.144;2024-01-30T12:03:00;12.55;;;8.60;;
75885;SDS011;64561;44.018;10.144;2024-01-30T12:05:28;11.13;;;7.97;;
75885;SDS011;64561;44.018;10.144;2024-01-30T12:07:57;12.88;;;8.07;;
75885;SDS011;64561;44.018;10.144;2024-01-30T12:10:29;13.68;;;8.68;;
75885;SDS011;64561;44.018;10.144;2024-01-30T12:12:57;9.90;;;7.20;;
75885;SDS011;64561;44.018;10.144;2024-01-30T12:15:25;13.25;;;8.02;;
75885;SDS011;64561;44.018;10.144;2024-01-30T12:17:52;12.30;;;8.60;;
75885;SDS011;64561;44.018;10.144;2024-01-30T12:20:32;10.68;;;7.00;;
75885;SDS011;64561;44.018;10.144;2024-01-30T12:22:59;25.48;;;9.57;;
75885;SDS011;64561;44.018;10.144;2024-01-30T12:25:26;12.63;;;8.35;;
75885;SDS011;64561;44.018;10.144;2024-01-30T12:27:54;9.60;;;6.40;;
75885;SDS011;64561;44.018;10.144;2024-01-30T12:30:21;17.75;;;8.52;;
75885;SDS011;64561;44.018;10.144;2024-01-30T12:32:49;12.05;;;7.80;;
75885;SDS011;64561;44.018;10.144;2024-01-30T12:35:19;9.65;;;6.28;;
75885;SDS011;64561;44.018;10.144;2024-01-30T12:37:48;9.98;;;6.88;;
75885;SDS011;64561;44.018;10.144;2024-01-30T12:40:16;9.45;;;6.13;;
75885;SDS011;64561;44.018;10.144;2024-01-30T12:42:46;10.25;;;6.45;;
75885;SDS011;64561;44.018;10.144;2024-01-30T12:45:16;8.25;;;6.20;;
75885;SDS011;64561;44.018;10.144;2024-01-30T12:47:49;9.73;;;6.80;;
75885;SDS011;64561;44.018;10.144;2024-01-30T12:50:16;12.85;;;8.07;;
75885;SDS011;64561;44.018;10.144;2024-01-30T12:52:44;13.10;;;9.18;;
75885;SDS011;64561;44.018;10.144;2024-01-30T12:55:16;12.95;;;8.77;;
75885;SDS011;64561;44.018;10.144;2024-01-30T12:57:44;12.00;;;8.25;;
75885;SDS011;64561;44.018;10.144;2024-01-30T13:00:13;11.10;;;7.45;;
75885;SDS011;64561;44.018;10.144;2024-01-30T13:02:41;11.02;;;7.30;;
75885;SDS011;64561;44.018;10.144;2024-01-30T13:05:09;9.35;;;6.80;;
75885;SDS011;64561;44.018;10.144;2024-01-30T13:07:37;11.80;;;7.45;;
75885;SDS011;64561;44.018;10.144;2024-01-30T13:10:04;9.80;;;6.45;;
75885;SDS011;64561;44.018;10.144;2024-01-30T13:12:32;10.30;;;6.75;;
75885;SDS011;64561;44.018;10.144;2024-01-30T13:15:00;8.95;;;6.28;;
75885;SDS011;64561;44.018;10.144;2024-01-30T13:17:33;9.65;;;6.43;;
75885;SDS011;64561;44.018;10.144;2024-01-30T13:20:01;9.07;;;6.68;;
75885;SDS011;64561;44.018;10.144;2024-01-30T13:22:37;9.02;;;6.05;;
75885;SDS011;64561;44.018;10.144;2024-01-30T13:25:10;10.70;;;6.22;;
75885;SDS011;64561;44.018;10.144;2024-01-30T13:27:38;7.57;;;5.78;;
75885;SDS011;64561;44.018;10.144;2024-01-30T13:30:06;9.43;;;6.22;;
75885;SDS011;64561;44.018;10.144;2024-01-30T13:32:35;9.02;;;6.00;;
75885;SDS011;64561;44.018;10.144;2024-01-30T13:35:03;9.30;;;6.68;;
75885;SDS011;64561;44.018;10.144;2024-01-30T13:37:31;10.20;;;6.30;;
75885;SDS011;64561;44.018;10.144;2024-01-30T13:39:58;10.57;;;6.47;;
75885;SDS011;64561;44.018;10.144;2024-01-30T13:44:56;9.73;;;6.03;;
75885;SDS011;64561;44.018;10.144;2024-01-30T13:47:24;10.00;;;5.75;;
75885;SDS011;64561;44.018;10.144;2024-01-30T13:49:51;9.00;;;6.43;;
75885;SDS011;64561;44.018;10.144;2024-01-30T13:52:20;8.65;;;5.65;;
75885;SDS011;64561;44.018;10.144;2024-01-30T13:54:51;14.32;;;7.00;;
75885;SDS011;64561;44.018;10.144;2024-01-30T13:57:18;9.55;;;5.88;;
75885;SDS011;64561;44.018;10.144;2024-01-30T13:59:46;10.43;;;6.90;;
75885;SDS011;64561;44.018;10.144;2024-01-30T14:02:13;7.43;;;6.57;;
75885;SDS011;64561;44.018;10.144;2024-01-30T14:04:43;9.57;;;6.40;;
75885;SDS011;64561;44.018;10.144;2024-01-30T14:07:11;8.63;;;6.38;;
75885;SDS011;64561;44.018;10.144;2024-01-30T14:09:41;7.88;;;5.65;;
75885;SDS011;64561;44.018;10.144;2024-01-30T14:12:08;11.90;;;6.65;;
75885;SDS011;64561;44.018;10.144;2024-01-30T14:14:35;8.90;;;6.60;;
75885;SDS011;64561;44.018;10.144;2024-01-30T14:17:03;7.15;;;5.43;;
75885;SDS011;64561;44.018;10.144;2024-01-30T14:19:30;8.45;;;5.90;;
75885;SDS011;64561;44.018;10.144;2024-01-30T14:22:00;9.93;;;6.63;;
75885;SDS011;64561;44.018;10.144;2024-01-30T14:24:27;11.18;;;7.93;;
75885;SDS011;64561;44.018;10.144;2024-01-30T14:26:54;10.50;;;6.75;;
75885;SDS011;64561;44.018;10.144;2024-01-30T14:29:22;11.65;;;6.40;;
75885;SDS011;64561;44.018;10.144;2024-01-30T14:31:50;14.98;;;8.02;;
75885;SDS011;64561;44.018;10.144;2024-01-30T14:34:17;17.60;;;10.75;;
75885;SDS011;64561;44.018;10.144;2024-01-30T14:36:45;14.93;;;8.70;;
75885;SDS011;64561;44.018;10.144;2024-01-30T14:39:13;18.48;;;10.50;;
75885;SDS011;64561;44.018;10.144;2024-01-30T14:41:40;16.33;;;9.88;;
75885;SDS011;64561;44.018;10.144;2024-01-30T14:44:08;11.07;;;6.95;;
75885;SDS011;64561;44.018;10.144;2024-01-30T14:46:36;9.63;;;6.85;;
75885;SDS011;64561;44.018;10.144;2024-01-30T14:49:04;10.13;;;6.88;;
75885;SDS011;64561;44.018;10.144;2024-01-30T14:51:33;9.65;;;5.95;;